createdAt,value
2017-09-16T00:01:33.403Z,11.70
2017-09-16T00:03:59.622Z,11.70
2017-09-16T00:06:25.839Z,11.70
2017-09-16T00:08:52.532Z,11.70
2017-09-16T00:11:18.800Z,11.60
2017-09-16T00:13:45.082Z,11.50
2017-09-16T00:16:11.691Z,11.50
2017-09-16T00:18:37.922Z,11.50
2017-09-16T00:21:04.160Z,11.50
2017-09-16T00:23:30.830Z,11.50
2017-09-16T00:25:57.134Z,11.40
2017-09-16T00:28:24.144Z,11.40
2017-09-16T00:30:50.870Z,11.40
2017-09-16T00:33:17.135Z,11.40
2017-09-16T00:35:43.410Z,11.40
2017-09-16T00:38:10.051Z,11.50
2017-09-16T00:40:36.345Z,11.50
2017-09-16T00:43:02.627Z,11.40
2017-09-16T00:45:29.295Z,11.50
2017-09-16T00:47:55.500Z,11.40
2017-09-16T00:50:21.803Z,11.40
2017-09-16T00:52:48.410Z,11.40
2017-09-16T00:55:15.442Z,11.30
2017-09-16T00:57:41.691Z,11.30
2017-09-16T01:00:09.069Z,11.30
2017-09-16T01:02:35.285Z,11.30
2017-09-16T01:05:02.252Z,11.20
2017-09-16T01:07:28.878Z,11.20
2017-09-16T01:09:55.075Z,11.20
2017-09-16T01:12:21.349Z,11.20
2017-09-16T01:14:47.927Z,11.20
2017-09-16T01:17:14.167Z,11.20
2017-09-16T01:19:40.425Z,11.30
2017-09-16T01:22:07.003Z,11.30
2017-09-16T01:24:33.255Z,11.30
2017-09-16T01:27:00.310Z,11.40
2017-09-16T01:29:26.942Z,11.30
2017-09-16T01:31:53.163Z,11.40
2017-09-16T01:34:19.453Z,11.30
2017-09-16T01:36:46.133Z,11.20
2017-09-16T01:39:12.433Z,11.10
2017-09-16T01:41:38.683Z,11.10
2017-09-16T01:44:05.382Z,11.10
2017-09-16T01:46:31.601Z,11.10
2017-09-16T01:48:57.839Z,11.20
2017-09-16T01:51:24.430Z,11.30
2017-09-16T01:53:50.690Z,11.20
2017-09-16T01:56:17.631Z,11.10
2017-09-16T01:58:44.998Z,11.00
2017-09-16T02:01:11.216Z,11.00
2017-09-16T02:03:38.155Z,11.00
2017-09-16T02:06:05.491Z,11.00
2017-09-16T02:08:31.798Z,11.00
2017-09-16T02:10:58.072Z,11.10
2017-09-16T02:13:24.722Z,11.10
2017-09-16T02:15:51.002Z,11.00
2017-09-16T02:18:18.038Z,11.00
2017-09-16T02:20:44.555Z,11.00
2017-09-16T02:23:10.743Z,11.00
2017-09-16T02:25:37.695Z,10.90
2017-09-16T02:28:05.061Z,10.90
2017-09-16T02:30:31.365Z,10.80
2017-09-16T02:32:58.447Z,10.90
2017-09-16T02:35:25.081Z,10.90
2017-09-16T02:37:51.402Z,10.90
2017-09-16T02:40:17.688Z,10.90
2017-09-16T02:42:44.386Z,10.80
2017-09-16T02:45:10.594Z,10.80
2017-09-16T02:47:37.593Z,10.70
2017-09-16T02:50:04.294Z,10.70
2017-09-16T02:52:30.491Z,10.50
2017-09-16T02:54:56.690Z,10.50
2017-09-16T02:57:23.331Z,10.60
2017-09-16T02:59:49.619Z,10.70
2017-09-16T03:02:15.861Z,10.70
2017-09-16T03:04:42.478Z,10.80
2017-09-16T03:07:08.786Z,10.80
2017-09-16T03:09:35.780Z,10.80
2017-09-16T03:12:02.318Z,10.70
2017-09-16T03:14:28.531Z,10.80
2017-09-16T03:16:54.854Z,10.70
2017-09-16T03:19:21.611Z,10.70
2017-09-16T03:21:47.879Z,10.70
2017-09-16T03:24:14.850Z,10.70
2017-09-16T03:26:42.226Z,10.80
2017-09-16T03:29:08.494Z,10.70
2017-09-16T03:31:34.739Z,10.80
2017-09-16T03:34:01.042Z,10.80
2017-09-16T03:36:27.226Z,10.90
2017-09-16T03:38:54.210Z,10.90
2017-09-16T03:41:20.460Z,10.90
2017-09-16T03:43:46.751Z,10.90
2017-09-16T03:46:13.005Z,10.90
2017-09-16T03:48:39.273Z,10.90
2017-09-16T03:51:06.251Z,10.90
2017-09-16T03:53:32.512Z,10.90
2017-09-16T03:55:58.812Z,10.90
2017-09-16T03:58:25.007Z,10.90
2017-09-16T04:00:51.294Z,10.90
2017-09-16T04:03:17.901Z,10.90
2017-09-16T04:05:44.141Z,10.90
2017-09-16T04:08:10.378Z,10.90
2017-09-16T04:10:36.668Z,10.90
2017-09-16T04:13:03.615Z,10.80
2017-09-16T04:15:30.578Z,10.80
2017-09-16T04:17:56.897Z,10.80
2017-09-16T04:20:23.901Z,10.90
2017-09-16T04:22:50.153Z,10.90
2017-09-16T04:25:17.192Z,10.90
2017-09-16T04:27:43.433Z,10.90
2017-09-16T04:30:10.407Z,11.00
2017-09-16T04:32:36.674Z,11.00
2017-09-16T04:35:02.949Z,11.00
2017-09-16T04:37:29.186Z,10.90
2017-09-16T04:39:56.578Z,10.80
2017-09-16T04:42:22.871Z,10.80
2017-09-16T04:44:49.847Z,10.80
2017-09-16T04:47:16.153Z,10.80
2017-09-16T04:49:42.427Z,10.80
2017-09-16T04:52:08.653Z,10.80
2017-09-16T04:54:35.216Z,10.80
2017-09-16T04:57:01.446Z,10.70
2017-09-16T04:59:27.653Z,10.70
2017-09-16T05:01:54.245Z,10.60
2017-09-16T05:04:20.479Z,10.60
2017-09-16T05:06:46.734Z,10.60
2017-09-16T05:09:13.015Z,10.50
2017-09-16T05:11:39.951Z,10.50
2017-09-16T05:14:06.898Z,10.50
2017-09-16T05:16:33.888Z,10.60
2017-09-16T05:19:00.171Z,10.60
2017-09-16T05:21:27.177Z,10.50
2017-09-16T05:23:53.453Z,10.50
2017-09-16T05:26:20.456Z,10.50
2017-09-16T05:28:46.726Z,10.50
2017-09-16T05:31:13.691Z,10.40
2017-09-16T05:33:39.951Z,10.40
2017-09-16T05:36:06.163Z,10.40
2017-09-16T05:38:32.860Z,10.40
2017-09-16T05:40:59.128Z,10.30
2017-09-16T05:43:25.366Z,10.40
2017-09-16T05:45:51.618Z,10.30
2017-09-16T05:48:17.838Z,10.30
2017-09-16T05:50:44.129Z,10.40
2017-09-16T05:53:10.388Z,10.30
2017-09-16T05:55:36.660Z,10.40
2017-09-16T05:58:02.961Z,10.30
2017-09-16T06:00:29.190Z,10.30
2017-09-16T06:02:55.423Z,10.20
2017-09-16T06:05:21.678Z,10.20
2017-09-16T06:07:47.921Z,10.20
2017-09-16T06:10:15.004Z,10.20
2017-09-16T06:12:41.246Z,10.20
2017-09-16T06:15:07.962Z,10.20
2017-09-16T06:17:34.230Z,10.20
2017-09-16T06:20:00.462Z,10.20
2017-09-16T06:22:26.762Z,10.30
2017-09-16T06:24:52.998Z,10.30
2017-09-16T06:27:19.223Z,10.40
2017-09-16T06:29:45.477Z,10.40
2017-09-16T06:32:11.757Z,10.40
2017-09-16T06:34:38.109Z,10.50
2017-09-16T06:37:04.419Z,10.60
2017-09-16T06:39:30.747Z,10.60
2017-09-16T06:41:56.967Z,10.60
2017-09-16T06:44:24.437Z,10.70
2017-09-16T06:46:50.670Z,10.70
2017-09-16T06:49:16.926Z,10.70
2017-09-16T06:51:43.547Z,10.70
2017-09-16T06:54:09.797Z,10.70
2017-09-16T06:56:36.082Z,10.80
2017-09-16T06:59:03.113Z,10.80
2017-09-16T07:01:30.142Z,10.80
2017-09-16T07:03:56.408Z,10.80
2017-09-16T07:06:22.717Z,10.90
2017-09-16T07:08:49.731Z,10.90
2017-09-16T07:11:15.932Z,10.90
2017-09-16T07:13:42.246Z,10.90
2017-09-16T07:16:08.487Z,11.00
2017-09-16T07:18:34.758Z,10.90
2017-09-16T07:21:00.967Z,10.80
2017-09-16T07:23:27.198Z,10.80
2017-09-16T07:25:53.434Z,10.70
2017-09-16T07:28:20.059Z,10.70
2017-09-16T07:30:46.290Z,10.90
2017-09-16T07:33:12.521Z,11.10
2017-09-16T07:35:38.753Z,11.20
2017-09-16T07:38:04.998Z,11.40
2017-09-16T07:40:31.238Z,11.50
2017-09-16T07:42:57.496Z,11.50
2017-09-16T07:45:23.749Z,11.50
2017-09-16T07:47:50.006Z,11.50
2017-09-16T07:50:16.265Z,11.60
2017-09-16T07:52:43.233Z,11.50
2017-09-16T07:55:09.478Z,11.50
2017-09-16T07:57:35.696Z,11.50
2017-09-16T08:00:01.915Z,11.60
2017-09-16T08:02:28.182Z,11.40
2017-09-16T08:04:54.781Z,11.50
2017-09-16T08:07:21.010Z,11.50
2017-09-16T08:09:47.226Z,11.50
2017-09-16T08:12:14.186Z,11.60
2017-09-16T08:14:40.412Z,11.60
2017-09-16T08:17:06.655Z,11.70
2017-09-16T08:19:32.890Z,11.80
2017-09-16T08:21:59.120Z,11.70
2017-09-16T08:24:25.377Z,11.70
2017-09-16T08:26:51.669Z,11.90
2017-09-16T08:29:17.978Z,12.10
2017-09-16T08:31:44.214Z,12.20
2017-09-16T08:34:10.532Z,12.10
2017-09-16T08:36:37.521Z,12.10
2017-09-16T08:39:03.849Z,12.10
2017-09-16T08:41:30.535Z,12.10
2017-09-16T08:43:56.730Z,12.20
2017-09-16T08:46:22.931Z,12.20
2017-09-16T08:48:49.151Z,12.30
2017-09-16T08:51:15.423Z,12.10
2017-09-16T08:53:41.705Z,12.20
2017-09-16T08:56:07.980Z,12.30
2017-09-16T08:58:34.206Z,12.30
2017-09-16T09:01:00.531Z,12.30
2017-09-16T09:03:27.200Z,12.30
2017-09-16T09:05:53.481Z,12.30
2017-09-16T09:08:19.762Z,12.30
2017-09-16T09:10:47.111Z,12.70
2017-09-16T09:13:13.359Z,12.70
2017-09-16T09:15:40.399Z,13.00
2017-09-16T09:18:07.438Z,13.30
2017-09-16T09:20:33.702Z,13.20
2017-09-16T09:22:59.923Z,13.20
2017-09-16T09:25:26.893Z,13.10
2017-09-16T09:27:53.081Z,13.10
2017-09-16T09:30:20.086Z,13.30
2017-09-16T09:32:46.394Z,13.30
2017-09-16T09:35:12.621Z,13.50
2017-09-16T09:37:38.870Z,13.60
2017-09-16T09:40:05.157Z,13.50
2017-09-16T09:42:32.164Z,13.70
2017-09-16T09:44:58.403Z,13.70
2017-09-16T09:47:25.042Z,13.70
2017-09-16T09:49:51.291Z,13.60
2017-09-16T09:52:18.317Z,13.50
2017-09-16T09:54:45.291Z,13.50
2017-09-16T09:57:12.277Z,13.60
2017-09-16T09:59:38.521Z,13.60
2017-09-16T10:02:04.761Z,13.70
2017-09-16T10:04:31.005Z,13.70
2017-09-16T10:06:58.002Z,13.90
2017-09-16T10:09:24.679Z,13.90
2017-09-16T10:11:50.953Z,14.00
2017-09-16T10:14:17.246Z,13.90
2017-09-16T10:16:44.291Z,14.00
2017-09-16T10:19:10.560Z,14.00
2017-09-16T10:21:36.802Z,14.10
2017-09-16T10:24:03.051Z,14.20
2017-09-16T10:26:29.320Z,14.30
2017-09-16T10:28:56.300Z,14.40
2017-09-16T10:31:22.883Z,14.40
2017-09-16T10:33:49.148Z,14.50
2017-09-16T10:36:15.467Z,14.70
2017-09-16T10:38:42.554Z,14.90
2017-09-16T10:41:08.778Z,14.90
2017-09-16T10:43:35.097Z,14.90
2017-09-16T10:46:01.308Z,15.00
2017-09-16T10:48:27.582Z,15.10
2017-09-16T10:50:53.802Z,15.20
2017-09-16T10:53:20.015Z,15.30
2017-09-16T10:55:46.300Z,15.50
2017-09-16T10:58:13.334Z,15.70
2017-09-16T11:00:39.608Z,15.70
2017-09-16T11:03:06.695Z,16.00
2017-09-16T11:05:33.002Z,16.20
2017-09-16T11:07:59.293Z,16.40
2017-09-16T11:10:26.293Z,16.60
2017-09-16T11:12:52.906Z,16.60
2017-09-16T11:15:19.156Z,16.60
2017-09-16T11:17:45.387Z,16.50
2017-09-16T11:20:11.686Z,16.50
2017-09-16T11:22:37.906Z,16.50
2017-09-16T11:25:05.273Z,16.60
2017-09-16T11:27:31.609Z,16.60
2017-09-16T11:29:57.917Z,16.90
2017-09-16T11:32:24.963Z,16.90
2017-09-16T11:34:51.990Z,16.70
2017-09-16T11:37:18.305Z,16.70
2017-09-16T11:39:44.567Z,16.70
2017-09-16T11:42:11.545Z,16.70
2017-09-16T11:44:37.801Z,16.70
2017-09-16T11:47:04.015Z,16.70
2017-09-16T11:49:30.587Z,16.70
2017-09-16T11:51:56.846Z,16.90
2017-09-16T11:54:23.802Z,17.00
2017-09-16T11:56:50.015Z,17.00
2017-09-16T11:59:16.966Z,16.60
2017-09-16T12:01:43.953Z,17.10
2017-09-16T12:04:10.199Z,17.10
2017-09-16T12:06:43.344Z,17.60
2017-09-16T12:09:09.643Z,17.60
2017-09-16T12:11:36.582Z,17.50
2017-09-16T12:14:03.210Z,17.50
2017-09-16T12:16:29.497Z,17.50
2017-09-16T12:18:55.786Z,17.50
2017-09-16T12:21:22.790Z,17.20
2017-09-16T12:23:49.074Z,17.20
2017-09-16T12:26:16.052Z,17.50
2017-09-16T12:28:42.365Z,17.50
2017-09-16T12:31:08.603Z,17.60
2017-09-16T12:33:34.894Z,17.60
2017-09-16T12:36:01.924Z,17.40
2017-09-16T12:38:28.510Z,17.40
2017-09-16T12:40:54.770Z,17.40
2017-09-16T12:43:21.054Z,17.40
2017-09-16T12:45:47.303Z,17.40
2017-09-16T12:48:13.559Z,17.40
2017-09-16T12:50:39.829Z,17.30
2017-09-16T12:53:06.762Z,17.20
2017-09-16T12:55:33.759Z,17.20
2017-09-16T12:58:00.027Z,17.20
2017-09-16T13:00:26.357Z,17.30
2017-09-16T13:02:52.906Z,17.30
2017-09-16T13:05:19.170Z,17.40
2017-09-16T13:07:45.423Z,17.30
2017-09-16T13:10:11.685Z,17.30
2017-09-16T13:12:37.987Z,17.50
2017-09-16T13:15:04.258Z,17.70
2017-09-16T13:17:31.226Z,18.00
2017-09-16T13:19:57.514Z,18.00
2017-09-16T13:22:23.747Z,18.20
2017-09-16T13:24:49.964Z,18.00
2017-09-16T13:27:16.260Z,17.60
2017-09-16T13:29:42.568Z,17.40
2017-09-16T13:32:08.869Z,17.40
2017-09-16T13:34:35.158Z,17.40
2017-09-16T13:37:01.738Z,17.20
2017-09-16T13:39:28.012Z,17.30
2017-09-16T13:41:54.237Z,17.30
2017-09-16T13:44:20.497Z,17.30
2017-09-16T13:46:46.741Z,17.00
2017-09-16T13:49:13.767Z,16.50
2017-09-16T13:51:40.030Z,16.50
2017-09-16T13:54:06.288Z,16.40
2017-09-16T13:56:33.867Z,16.20
2017-09-16T13:59:00.103Z,16.10
2017-09-16T14:01:26.336Z,16.10
2017-09-16T14:03:52.631Z,15.90
2017-09-16T14:06:18.909Z,15.90
2017-09-16T14:08:45.156Z,15.70
2017-09-16T14:11:11.408Z,15.70
2017-09-16T14:13:38.349Z,15.80
2017-09-16T14:16:04.621Z,15.80
2017-09-16T14:18:30.879Z,15.80
2017-09-16T14:20:57.190Z,15.80
2017-09-16T14:23:23.458Z,15.70
2017-09-16T14:25:56.730Z,15.70
2017-09-16T14:28:22.940Z,15.70
2017-09-16T14:30:49.511Z,15.60
2017-09-16T14:33:15.785Z,15.60
2017-09-16T14:35:42.067Z,15.50
2017-09-16T14:38:09.562Z,15.60
2017-09-16T14:40:35.783Z,15.50
2017-09-16T14:43:02.777Z,15.50
2017-09-16T14:45:29.048Z,15.50
2017-09-16T14:47:56.008Z,15.80
2017-09-16T14:50:23.012Z,15.80
2017-09-16T14:52:49.298Z,15.80
2017-09-16T14:55:15.496Z,15.90
2017-09-16T14:57:41.783Z,16.00
2017-09-16T15:00:08.042Z,16.00
2017-09-16T15:02:34.319Z,16.20
2017-09-16T15:05:00.549Z,16.30
2017-09-16T15:07:26.825Z,16.40
2017-09-16T15:09:53.058Z,16.70
2017-09-16T15:12:19.316Z,16.90
2017-09-16T15:14:45.866Z,17.00
2017-09-16T15:17:12.136Z,17.00
2017-09-16T15:19:38.436Z,17.20
2017-09-16T15:22:04.746Z,17.20
2017-09-16T15:24:31.018Z,17.20
2017-09-16T15:26:57.285Z,17.00
2017-09-16T15:29:24.279Z,16.90
2017-09-16T15:31:50.523Z,16.90
2017-09-16T15:34:16.739Z,16.80
2017-09-16T15:36:42.971Z,16.70
2017-09-16T15:39:09.184Z,16.50
2017-09-16T15:41:35.437Z,16.50
2017-09-16T15:44:01.669Z,16.40
2017-09-16T15:46:27.972Z,16.50
2017-09-16T15:48:54.246Z,16.30
2017-09-16T15:51:20.718Z,16.10
2017-09-16T15:53:47.726Z,16.20
2017-09-16T15:56:13.990Z,16.20
2017-09-16T15:58:40.244Z,16.20
2017-09-16T16:01:06.463Z,16.30
2017-09-16T16:03:32.772Z,16.30
2017-09-16T16:05:59.753Z,16.30
2017-09-16T16:08:26.038Z,16.20
2017-09-16T16:10:53.028Z,16.10
2017-09-16T16:13:19.254Z,16.10
2017-09-16T16:15:45.500Z,16.10
2017-09-16T16:18:11.893Z,16.00
2017-09-16T16:20:38.112Z,15.90
2017-09-16T16:23:05.110Z,15.80
2017-09-16T16:25:31.396Z,15.80
2017-09-16T16:27:57.650Z,15.70
2017-09-16T16:30:23.995Z,15.60
2017-09-16T16:32:50.296Z,15.50
2017-09-16T16:35:16.566Z,15.40
2017-09-16T16:37:42.787Z,15.30
2017-09-16T16:40:09.023Z,15.30
2017-09-16T16:42:35.576Z,15.20
2017-09-16T16:45:02.550Z,14.90
2017-09-16T16:47:29.574Z,14.70
2017-09-16T16:49:56.540Z,14.70
2017-09-16T16:52:23.511Z,14.60
2017-09-16T16:54:49.750Z,14.60
2017-09-16T16:57:16.050Z,14.60
2017-09-16T16:59:42.320Z,14.50
2017-09-16T17:02:08.559Z,14.30
2017-09-16T17:04:34.745Z,14.30
2017-09-16T17:07:01.342Z,14.20
2017-09-16T17:09:27.597Z,14.20
2017-09-16T17:11:53.862Z,14.10
2017-09-16T17:14:20.117Z,14.00
2017-09-16T17:16:46.336Z,14.00
2017-09-16T17:19:12.602Z,13.80
2017-09-16T17:21:39.977Z,13.80
2017-09-16T17:24:06.223Z,13.70
2017-09-16T17:26:32.442Z,13.70
2017-09-16T17:28:58.726Z,13.50
2017-09-16T17:31:24.994Z,13.50
2017-09-16T17:33:51.296Z,13.40
2017-09-16T17:36:18.283Z,13.30
2017-09-16T17:38:44.564Z,13.20
2017-09-16T17:41:11.581Z,13.10
2017-09-16T17:43:37.865Z,13.10
2017-09-16T17:46:04.112Z,13.10
2017-09-16T17:48:30.418Z,13.10
2017-09-16T17:50:57.446Z,13.10
2017-09-16T17:53:24.451Z,12.90
2017-09-16T17:55:50.770Z,12.90
2017-09-16T17:58:17.037Z,12.80
2017-09-16T18:00:43.328Z,12.70
2017-09-16T18:03:09.535Z,12.70
2017-09-16T18:05:36.561Z,12.60
2017-09-16T18:08:03.565Z,12.50
2017-09-16T18:10:29.794Z,12.50
2017-09-16T18:12:56.167Z,12.50
2017-09-16T18:15:22.394Z,12.40
2017-09-16T18:17:48.666Z,12.40
2017-09-16T18:20:15.310Z,12.40
2017-09-16T18:22:41.499Z,12.40
2017-09-16T18:25:08.499Z,12.30
2017-09-16T18:27:34.803Z,12.20
2017-09-16T18:30:01.065Z,12.20
2017-09-16T18:32:27.368Z,12.10
2017-09-16T18:34:53.635Z,12.10
2017-09-16T18:37:19.913Z,12.00
2017-09-16T18:39:46.163Z,12.00
2017-09-16T18:42:12.499Z,11.90
2017-09-16T18:44:38.838Z,11.90
2017-09-16T18:47:05.066Z,11.90
2017-09-16T18:49:31.278Z,11.90
2017-09-16T18:51:57.518Z,12.00
2017-09-16T18:54:23.791Z,12.00
2017-09-16T18:56:51.182Z,12.00
2017-09-16T18:59:17.412Z,12.00
2017-09-16T19:01:43.669Z,12.00
2017-09-16T19:04:09.908Z,11.90
2017-09-16T19:06:36.154Z,11.90
2017-09-16T19:09:02.430Z,11.90
2017-09-16T19:11:28.734Z,11.90
2017-09-16T19:13:55.798Z,11.90
2017-09-16T19:16:22.119Z,12.00
2017-09-16T19:18:48.402Z,12.00
2017-09-16T19:21:14.627Z,11.90
2017-09-16T19:23:41.881Z,11.90
2017-09-16T19:26:08.163Z,12.00
2017-09-16T19:28:35.164Z,11.90
2017-09-16T19:31:01.384Z,11.90
2017-09-16T19:33:27.938Z,11.90
2017-09-16T19:35:54.333Z,11.90
2017-09-16T19:38:20.548Z,11.90
2017-09-16T19:40:46.787Z,11.90
2017-09-16T19:43:13.117Z,11.90
2017-09-16T19:45:39.414Z,11.80
2017-09-16T19:48:06.437Z,11.70
2017-09-16T19:50:32.619Z,11.70
2017-09-16T19:52:58.885Z,11.60
2017-09-16T19:55:25.114Z,11.60
2017-09-16T19:57:51.405Z,11.50
2017-09-16T20:00:20.682Z,11.50
2017-09-16T20:02:46.932Z,11.40
2017-09-16T20:05:13.213Z,11.40
2017-09-16T20:07:40.238Z,11.40
2017-09-16T20:10:06.795Z,11.30
2017-09-16T20:12:33.062Z,11.30
2017-09-16T20:14:59.318Z,11.30
2017-09-16T20:17:25.589Z,11.30
2017-09-16T20:19:52.593Z,11.30
2017-09-16T20:22:18.873Z,11.20
2017-09-16T20:24:45.948Z,11.20
2017-09-16T20:27:12.283Z,11.20
2017-09-16T20:29:38.545Z,11.20
2017-09-16T20:32:04.797Z,11.20
2017-09-16T20:34:31.075Z,11.10
2017-09-16T20:36:57.449Z,11.10
2017-09-16T20:39:23.694Z,11.10
2017-09-16T20:41:50.686Z,11.20
2017-09-16T20:44:17.235Z,11.20
2017-09-16T20:46:43.468Z,11.20
2017-09-16T20:49:09.681Z,11.30
2017-09-16T20:51:35.953Z,11.30
2017-09-16T20:54:02.243Z,11.30
2017-09-16T20:56:28.480Z,11.30
2017-09-16T20:58:54.766Z,11.40
2017-09-16T21:01:21.783Z,11.40
2017-09-16T21:03:47.995Z,11.40
2017-09-16T21:06:14.590Z,11.30
2017-09-16T21:08:40.823Z,11.20
2017-09-16T21:11:07.074Z,11.20
2017-09-16T21:13:33.342Z,11.10
2017-09-16T21:15:59.620Z,11.10
2017-09-16T21:18:25.935Z,11.00
2017-09-16T21:20:52.239Z,11.10
2017-09-16T21:23:19.216Z,11.00
2017-09-16T21:25:45.421Z,11.00
2017-09-16T21:28:12.428Z,11.00
2017-09-16T21:30:38.701Z,11.00
2017-09-16T21:33:05.736Z,11.00
2017-09-16T21:35:32.707Z,10.90
2017-09-16T21:37:58.923Z,10.90
2017-09-16T21:40:25.925Z,10.90
2017-09-16T21:42:52.378Z,10.90
2017-09-16T21:45:18.603Z,10.90
2017-09-16T21:47:44.873Z,10.80
2017-09-16T21:50:11.159Z,10.70
2017-09-16T21:52:37.402Z,10.70
2017-09-16T21:55:04.406Z,10.60
2017-09-16T21:57:30.667Z,10.60
2017-09-16T21:59:57.602Z,10.50
2017-09-16T22:02:23.836Z,10.50
2017-09-16T22:04:50.095Z,10.40
2017-09-16T22:07:17.072Z,10.40
2017-09-16T22:09:43.299Z,10.40
2017-09-16T22:12:09.589Z,10.40
2017-09-16T22:14:36.593Z,10.20
2017-09-16T22:17:02.852Z,10.20
2017-09-16T22:19:29.450Z,10.20
2017-09-16T22:21:55.671Z,10.20
2017-09-16T22:24:21.902Z,10.20
2017-09-16T22:26:48.134Z,10.10
2017-09-16T22:29:14.346Z,10.00
2017-09-16T22:31:40.619Z,10.00
2017-09-16T22:34:06.903Z,10.00
2017-09-16T22:36:33.174Z,10.00
2017-09-16T22:38:59.467Z,10.00
2017-09-16T22:41:25.701Z,9.90
2017-09-16T22:43:51.946Z,9.90
2017-09-16T22:46:18.229Z,9.90
2017-09-16T22:48:45.294Z,9.90
2017-09-16T22:51:11.510Z,9.90
2017-09-16T22:53:38.546Z,9.90
2017-09-16T22:56:05.530Z,9.90
2017-09-16T22:58:31.742Z,9.80
2017-09-16T23:00:58.032Z,9.90
2017-09-16T23:03:24.253Z,9.90
2017-09-16T23:05:50.471Z,9.90
2017-09-16T23:08:16.742Z,9.90
2017-09-16T23:10:43.708Z,9.90
2017-09-16T23:13:09.955Z,9.90
2017-09-16T23:15:36.246Z,9.90
2017-09-16T23:18:03.275Z,10.00
2017-09-16T23:20:29.527Z,10.00
2017-09-16T23:22:56.514Z,10.00
2017-09-16T23:25:22.744Z,10.00
2017-09-16T23:27:49.008Z,10.00
2017-09-16T23:30:15.316Z,10.00
2017-09-16T23:32:41.587Z,10.00
2017-09-16T23:35:08.583Z,10.00
2017-09-16T23:37:34.849Z,10.00
2017-09-16T23:40:01.828Z,10.00
2017-09-16T23:42:28.114Z,10.00
2017-09-16T23:44:55.131Z,10.00
2017-09-16T23:47:21.737Z,10.00
2017-09-16T23:49:47.970Z,10.10
2017-09-16T23:52:14.216Z,10.10
2017-09-16T23:57:34.227Z,10.10
